sensor_id;sensor_type;location;lat;lon;timestamp;P1;durP1;ratioP1;P2;durP2;ratioP2
37781;SDS011;23621;50.878;4.584;2023-12-07T00:00:19;28.55;;;17.45;;
37781;SDS011;23621;50.878;4.584;2023-12-07T00:03:06;25.40;;;16.27;;
37781;SDS011;23621;50.878;4.584;2023-12-07T00:05:54;31.20;;;17.92;;
37781;SDS011;23621;50.878;4.584;2023-12-07T00:08:41;27.17;;;16.55;;
37781;SDS011;23621;50.878;4.584;2023-12-07T00:11:28;33.42;;;18.38;;
37781;SDS011;23621;50.878;4.584;2023-12-07T00:14:16;27.65;;;17.17;;
37781;SDS011;23621;50.878;4.584;2023-12-07T00:17:03;26.73;;;16.58;;
37781;SDS011;23621;50.878;4.584;2023-12-07T00:19:51;29.35;;;18.98;;
37781;SDS011;23621;50.878;4.584;2023-12-07T00:22:40;29.92;;;18.60;;
37781;SDS011;23621;50.878;4.584;2023-12-07T00:25:28;31.70;;;18.90;;
37781;SDS011;23621;50.878;4.584;2023-12-07T00:28:15;27.27;;;17.80;;
37781;SDS011;23621;50.878;4.584;2023-12-07T00:31:03;29.17;;;17.98;;
37781;SDS011;23621;50.878;4.584;2023-12-07T00:33:50;29.60;;;17.75;;
37781;SDS011;23621;50.878;4.584;2023-12-07T00:36:37;31.77;;;18.30;;
37781;SDS011;23621;50.878;4.584;2023-12-07T00:39:27;30.08;;;17.33;;
37781;SDS011;23621;50.878;4.584;2023-12-07T00:42:15;28.58;;;17.70;;
37781;SDS011;23621;50.878;4.584;2023-12-07T00:45:02;28.83;;;17.02;;
37781;SDS011;23621;50.878;4.584;2023-12-07T00:47:50;25.75;;;16.15;;
37781;SDS011;23621;50.878;4.584;2023-12-07T00:50:37;27.55;;;16.10;;
37781;SDS011;23621;50.878;4.584;2023-12-07T00:53:25;27.23;;;16.48;;
37781;SDS011;23621;50.878;4.584;2023-12-07T00:56:12;27.65;;;16.90;;
37781;SDS011;23621;50.878;4.584;2023-12-07T00:58:59;26.45;;;17.65;;
37781;SDS011;23621;50.878;4.584;2023-12-07T01:01:46;27.23;;;16.80;;
37781;SDS011;23621;50.878;4.584;2023-12-07T01:04:34;26.55;;;17.13;;
37781;SDS011;23621;50.878;4.584;2023-12-07T01:07:21;27.50;;;17.25;;
37781;SDS011;23621;50.878;4.584;2023-12-07T01:10:08;29.02;;;17.50;;
37781;SDS011;23621;50.878;4.584;2023-12-07T01:12:56;27.63;;;17.90;;
37781;SDS011;23621;50.878;4.584;2023-12-07T01:15:43;31.63;;;18.85;;
37781;SDS011;23621;50.878;4.584;2023-12-07T01:18:30;26.60;;;17.27;;
37781;SDS011;23621;50.878;4.584;2023-12-07T01:21:18;28.98;;;17.90;;
37781;SDS011;23621;50.878;4.584;2023-12-07T01:24:06;28.55;;;17.17;;
37781;SDS011;23621;50.878;4.584;2023-12-07T01:27:01;27.83;;;17.73;;
37781;SDS011;23621;50.878;4.584;2023-12-07T01:29:49;28.58;;;17.58;;
37781;SDS011;23621;50.878;4.584;2023-12-07T01:32:36;27.40;;;17.75;;
37781;SDS011;23621;50.878;4.584;2023-12-07T01:35:24;26.75;;;17.65;;
37781;SDS011;23621;50.878;4.584;2023-12-07T01:38:11;29.42;;;17.48;;
37781;SDS011;23621;50.878;4.584;2023-12-07T01:40:59;31.98;;;18.85;;
37781;SDS011;23621;50.878;4.584;2023-12-07T01:43:46;27.63;;;17.92;;
37781;SDS011;23621;50.878;4.584;2023-12-07T01:46:34;30.98;;;18.73;;
37781;SDS011;23621;50.878;4.584;2023-12-07T01:49:22;31.65;;;18.35;;
37781;SDS011;23621;50.878;4.584;2023-12-07T01:52:10;27.02;;;17.35;;
37781;SDS011;23621;50.878;4.584;2023-12-07T01:54:58;26.52;;;17.70;;
37781;SDS011;23621;50.878;4.584;2023-12-07T01:57:46;28.77;;;18.77;;
37781;SDS011;23621;50.878;4.584;2023-12-07T02:00:34;27.40;;;17.98;;
37781;SDS011;23621;50.878;4.584;2023-12-07T02:03:21;28.75;;;18.92;;
37781;SDS011;23621;50.878;4.584;2023-12-07T02:06:10;27.92;;;18.95;;
37781;SDS011;23621;50.878;4.584;2023-12-07T02:08:57;31.92;;;20.60;;
37781;SDS011;23621;50.878;4.584;2023-12-07T02:11:45;29.52;;;18.60;;
37781;SDS011;23621;50.878;4.584;2023-12-07T02:14:32;30.15;;;20.30;;
37781;SDS011;23621;50.878;4.584;2023-12-07T02:17:24;31.77;;;21.75;;
37781;SDS011;23621;50.878;4.584;2023-12-07T02:20:27;31.77;;;21.83;;
37781;SDS011;23621;50.878;4.584;2023-12-07T02:23:21;34.92;;;22.48;;
37781;SDS011;23621;50.878;4.584;2023-12-07T02:26:30;32.13;;;22.23;;
37781;SDS011;23621;50.878;4.584;2023-12-07T02:29:18;32.78;;;21.63;;
37781;SDS011;23621;50.878;4.584;2023-12-07T02:32:05;30.70;;;22.58;;
37781;SDS011;23621;50.878;4.584;2023-12-07T02:34:53;31.13;;;21.02;;
37781;SDS011;23621;50.878;4.584;2023-12-07T02:37:44;31.83;;;21.63;;
37781;SDS011;23621;50.878;4.584;2023-12-07T02:40:33;31.38;;;21.30;;
37781;SDS011;23621;50.878;4.584;2023-12-07T02:43:22;33.92;;;21.77;;
37781;SDS011;23621;50.878;4.584;2023-12-07T02:46:09;31.40;;;22.20;;
37781;SDS011;23621;50.878;4.584;2023-12-07T02:48:57;31.02;;;21.10;;
37781;SDS011;23621;50.878;4.584;2023-12-07T02:51:45;31.30;;;19.92;;
37781;SDS011;23621;50.878;4.584;2023-12-07T02:54:32;25.13;;;18.98;;
37781;SDS011;23621;50.878;4.584;2023-12-07T02:57:20;26.90;;;19.10;;
37781;SDS011;23621;50.878;4.584;2023-12-07T03:00:07;26.08;;;17.90;;
37781;SDS011;23621;50.878;4.584;2023-12-07T03:02:55;26.40;;;19.33;;
37781;SDS011;23621;50.878;4.584;2023-12-07T03:05:42;25.80;;;18.40;;
37781;SDS011;23621;50.878;4.584;2023-12-07T03:08:29;28.05;;;18.33;;
37781;SDS011;23621;50.878;4.584;2023-12-07T03:11:16;29.52;;;18.58;;
37781;SDS011;23621;50.878;4.584;2023-12-07T03:14:04;26.95;;;18.25;;
37781;SDS011;23621;50.878;4.584;2023-12-07T03:16:51;26.38;;;18.90;;
37781;SDS011;23621;50.878;4.584;2023-12-07T03:19:38;22.30;;;17.20;;
37781;SDS011;23621;50.878;4.584;2023-12-07T03:22:26;22.55;;;16.42;;
37781;SDS011;23621;50.878;4.584;2023-12-07T03:25:14;23.25;;;15.38;;
37781;SDS011;23621;50.878;4.584;2023-12-07T03:28:02;20.83;;;15.82;;
37781;SDS011;23621;50.878;4.584;2023-12-07T03:30:49;23.20;;;15.68;;
37781;SDS011;23621;50.878;4.584;2023-12-07T03:33:36;23.83;;;15.32;;
37781;SDS011;23621;50.878;4.584;2023-12-07T03:36:25;22.98;;;15.30;;
37781;SDS011;23621;50.878;4.584;2023-12-07T03:39:16;19.40;;;14.85;;
37781;SDS011;23621;50.878;4.584;2023-12-07T03:42:09;19.38;;;15.07;;
37781;SDS011;23621;50.878;4.584;2023-12-07T03:45:16;23.55;;;15.82;;
37781;SDS011;23621;50.878;4.584;2023-12-07T03:48:03;19.00;;;14.80;;
37781;SDS011;23621;50.878;4.584;2023-12-07T03:50:51;21.17;;;15.10;;
37781;SDS011;23621;50.878;4.584;2023-12-07T03:53:39;22.73;;;15.77;;
37781;SDS011;23621;50.878;4.584;2023-12-07T03:56:27;20.98;;;15.48;;
37781;SDS011;23621;50.878;4.584;2023-12-07T03:59:15;24.35;;;16.08;;
37781;SDS011;23621;50.878;4.584;2023-12-07T04:02:02;21.98;;;15.90;;
37781;SDS011;23621;50.878;4.584;2023-12-07T04:04:50;19.60;;;16.02;;
37781;SDS011;23621;50.878;4.584;2023-12-07T04:07:37;21.40;;;16.33;;
37781;SDS011;23621;50.878;4.584;2023-12-07T04:10:25;20.25;;;15.95;;
37781;SDS011;23621;50.878;4.584;2023-12-07T04:13:12;21.23;;;15.75;;
37781;SDS011;23621;50.878;4.584;2023-12-07T04:16:00;22.30;;;16.25;;
37781;SDS011;23621;50.878;4.584;2023-12-07T04:18:47;19.85;;;15.93;;
37781;SDS011;23621;50.878;4.584;2023-12-07T04:21:35;20.38;;;15.02;;
37781;SDS011;23621;50.878;4.584;2023-12-07T04:24:22;20.10;;;14.93;;
37781;SDS011;23621;50.878;4.584;2023-12-07T04:27:10;18.38;;;14.13;;
37781;SDS011;23621;50.878;4.584;2023-12-07T04:29:57;20.52;;;14.43;;
37781;SDS011;23621;50.878;4.584;2023-12-07T04:32:44;18.83;;;14.57;;
37781;SDS011;23621;50.878;4.584;2023-12-07T04:35:32;21.73;;;14.98;;
37781;SDS011;23621;50.878;4.584;2023-12-07T04:38:21;19.25;;;14.80;;
37781;SDS011;23621;50.878;4.584;2023-12-07T04:41:08;17.75;;;14.77;;
37781;SDS011;23621;50.878;4.584;2023-12-07T04:43:56;20.85;;;15.10;;
37781;SDS011;23621;50.878;4.584;2023-12-07T04:46:43;18.00;;;14.63;;
37781;SDS011;23621;50.878;4.584;2023-12-07T04:49:31;18.90;;;14.43;;
37781;SDS011;23621;50.878;4.584;2023-12-07T04:52:18;17.65;;;14.13;;
37781;SDS011;23621;50.878;4.584;2023-12-07T04:55:06;15.68;;;14.07;;
37781;SDS011;23621;50.878;4.584;2023-12-07T04:57:54;19.27;;;14.05;;
37781;SDS011;23621;50.878;4.584;2023-12-07T05:00:41;18.00;;;13.82;;
37781;SDS011;23621;50.878;4.584;2023-12-07T05:03:29;17.30;;;12.50;;
37781;SDS011;23621;50.878;4.584;2023-12-07T05:06:16;14.82;;;12.13;;
37781;SDS011;23621;50.878;4.584;2023-12-07T05:09:04;15.73;;;12.25;;
37781;SDS011;23621;50.878;4.584;2023-12-07T05:11:51;17.58;;;12.57;;
37781;SDS011;23621;50.878;4.584;2023-12-07T05:14:39;16.20;;;11.75;;
37781;SDS011;23621;50.878;4.584;2023-12-07T05:17:26;15.60;;;13.27;;
37781;SDS011;23621;50.878;4.584;2023-12-07T05:20:13;19.15;;;13.40;;
37781;SDS011;23621;50.878;4.584;2023-12-07T05:23:02;18.50;;;14.80;;
37781;SDS011;23621;50.878;4.584;2023-12-07T05:25:49;20.45;;;14.35;;
37781;SDS011;23621;50.878;4.584;2023-12-07T05:28:36;18.30;;;14.40;;
37781;SDS011;23621;50.878;4.584;2023-12-07T05:31:24;18.65;;;15.38;;
37781;SDS011;23621;50.878;4.584;2023-12-07T05:34:13;18.85;;;14.82;;
37781;SDS011;23621;50.878;4.584;2023-12-07T05:37:01;19.55;;;14.93;;
37781;SDS011;23621;50.878;4.584;2023-12-07T05:39:48;20.10;;;15.05;;
37781;SDS011;23621;50.878;4.584;2023-12-07T05:42:35;18.58;;;15.10;;
37781;SDS011;23621;50.878;4.584;2023-12-07T05:45:23;20.08;;;14.75;;
37781;SDS011;23621;50.878;4.584;2023-12-07T05:48:10;19.30;;;15.18;;
37781;SDS011;23621;50.878;4.584;2023-12-07T05:50:58;18.92;;;15.68;;
37781;SDS011;23621;50.878;4.584;2023-12-07T05:53:45;19.98;;;14.65;;
37781;SDS011;23621;50.878;4.584;2023-12-07T05:56:33;19.30;;;14.77;;
37781;SDS011;23621;50.878;4.584;2023-12-07T05:59:20;17.10;;;14.55;;
37781;SDS011;23621;50.878;4.584;2023-12-07T06:02:09;19.98;;;15.25;;
37781;SDS011;23621;50.878;4.584;2023-12-07T06:04:56;18.90;;;14.48;;
37781;SDS011;23621;50.878;4.584;2023-12-07T06:07:44;17.92;;;14.52;;
37781;SDS011;23621;50.878;4.584;2023-12-07T06:10:31;17.75;;;14.18;;
37781;SDS011;23621;50.878;4.584;2023-12-07T06:13:19;16.65;;;14.15;;
37781;SDS011;23621;50.878;4.584;2023-12-07T06:16:06;16.48;;;13.77;;
37781;SDS011;23621;50.878;4.584;2023-12-07T06:18:53;18.75;;;14.57;;
37781;SDS011;23621;50.878;4.584;2023-12-07T06:21:41;18.27;;;13.95;;
37781;SDS011;23621;50.878;4.584;2023-12-07T06:24:30;17.20;;;14.25;;
37781;SDS011;23621;50.878;4.584;2023-12-07T06:27:19;18.60;;;14.13;;
37781;SDS011;23621;50.878;4.584;2023-12-07T06:30:06;16.27;;;13.82;;
37781;SDS011;23621;50.878;4.584;2023-12-07T06:32:54;19.60;;;14.40;;
37781;SDS011;23621;50.878;4.584;2023-12-07T06:35:41;18.40;;;13.70;;
37781;SDS011;23621;50.878;4.584;2023-12-07T06:38:29;18.48;;;13.75;;
37781;SDS011;23621;50.878;4.584;2023-12-07T06:41:17;17.83;;;14.48;;
37781;SDS011;23621;50.878;4.584;2023-12-07T06:44:06;18.38;;;13.73;;
37781;SDS011;23621;50.878;4.584;2023-12-07T06:46:54;19.38;;;13.73;;
37781;SDS011;23621;50.878;4.584;2023-12-07T06:49:41;16.20;;;13.43;;
37781;SDS011;23621;50.878;4.584;2023-12-07T06:52:38;18.25;;;13.75;;
37781;SDS011;23621;50.878;4.584;2023-12-07T06:55:26;17.60;;;12.68;;
37781;SDS011;23621;50.878;4.584;2023-12-07T06:58:14;16.42;;;12.95;;
37781;SDS011;23621;50.878;4.584;2023-12-07T07:01:01;16.63;;;13.20;;
37781;SDS011;23621;50.878;4.584;2023-12-07T07:03:49;18.45;;;13.80;;
37781;SDS011;23621;50.878;4.584;2023-12-07T07:06:37;17.20;;;13.93;;
37781;SDS011;23621;50.878;4.584;2023-12-07T07:09:26;16.20;;;13.27;;
37781;SDS011;23621;50.878;4.584;2023-12-07T07:12:13;19.13;;;12.88;;
37781;SDS011;23621;50.878;4.584;2023-12-07T07:15:01;16.88;;;13.07;;
37781;SDS011;23621;50.878;4.584;2023-12-07T07:17:48;14.93;;;12.68;;
37781;SDS011;23621;50.878;4.584;2023-12-07T07:20:35;16.65;;;12.55;;
37781;SDS011;23621;50.878;4.584;2023-12-07T07:23:23;16.13;;;12.48;;
37781;SDS011;23621;50.878;4.584;2023-12-07T07:26:10;15.68;;;12.73;;
37781;SDS011;23621;50.878;4.584;2023-12-07T07:28:58;16.25;;;12.30;;
37781;SDS011;23621;50.878;4.584;2023-12-07T07:31:46;16.58;;;11.75;;
37781;SDS011;23621;50.878;4.584;2023-12-07T07:34:33;15.40;;;12.02;;
37781;SDS011;23621;50.878;4.584;2023-12-07T07:37:20;17.50;;;12.20;;
37781;SDS011;23621;50.878;4.584;2023-12-07T07:40:11;16.65;;;12.52;;
37781;SDS011;23621;50.878;4.584;2023-12-07T07:42:59;15.70;;;12.70;;
37781;SDS011;23621;50.878;4.584;2023-12-07T07:45:49;17.83;;;12.85;;
37781;SDS011;23621;50.878;4.584;2023-12-07T07:48:36;17.08;;;12.50;;
37781;SDS011;23621;50.878;4.584;2023-12-07T07:51:24;16.73;;;12.73;;
37781;SDS011;23621;50.878;4.584;2023-12-07T07:54:11;15.52;;;11.38;;
37781;SDS011;23621;50.878;4.584;2023-12-07T07:57:01;16.50;;;12.40;;
37781;SDS011;23621;50.878;4.584;2023-12-07T07:59:48;16.80;;;12.55;;
37781;SDS011;23621;50.878;4.584;2023-12-07T08:02:36;16.63;;;12.27;;
37781;SDS011;23621;50.878;4.584;2023-12-07T08:05:23;16.65;;;12.18;;
37781;SDS011;23621;50.878;4.584;2023-12-07T08:08:11;20.13;;;13.20;;
37781;SDS011;23621;50.878;4.584;2023-12-07T08:10:58;17.95;;;12.73;;
37781;SDS011;23621;50.878;4.584;2023-12-07T08:13:46;16.23;;;13.00;;
37781;SDS011;23621;50.878;4.584;2023-12-07T08:16:33;15.07;;;11.70;;
37781;SDS011;23621;50.878;4.584;2023-12-07T08:19:21;15.70;;;11.55;;
37781;SDS011;23621;50.878;4.584;2023-12-07T08:22:08;16.73;;;12.05;;
37781;SDS011;23621;50.878;4.584;2023-12-07T08:24:55;15.52;;;12.20;;
37781;SDS011;23621;50.878;4.584;2023-12-07T08:27:56;18.92;;;13.13;;
37781;SDS011;23621;50.878;4.584;2023-12-07T08:30:43;16.77;;;12.32;;
37781;SDS011;23621;50.878;4.584;2023-12-07T08:33:30;16.15;;;12.35;;
37781;SDS011;23621;50.878;4.584;2023-12-07T08:36:18;19.75;;;13.32;;
37781;SDS011;23621;50.878;4.584;2023-12-07T08:39:06;16.55;;;13.05;;
37781;SDS011;23621;50.878;4.584;2023-12-07T08:41:56;16.17;;;12.60;;
37781;SDS011;23621;50.878;4.584;2023-12-07T08:44:44;18.65;;;12.77;;
37781;SDS011;23621;50.878;4.584;2023-12-07T08:47:31;17.00;;;12.77;;
37781;SDS011;23621;50.878;4.584;2023-12-07T08:50:18;14.95;;;12.50;;
37781;SDS011;23621;50.878;4.584;2023-12-07T08:53:06;17.95;;;12.57;;
37781;SDS011;23621;50.878;4.584;2023-12-07T08:55:54;17.45;;;13.07;;
37781;SDS011;23621;50.878;4.584;2023-12-07T08:58:41;17.42;;;12.57;;
37781;SDS011;23621;50.878;4.584;2023-12-07T09:01:28;16.30;;;12.80;;
37781;SDS011;23621;50.878;4.584;2023-12-07T09:04:19;18.13;;;13.07;;
37781;SDS011;23621;50.878;4.584;2023-12-07T09:07:07;17.95;;;12.80;;
37781;SDS011;23621;50.878;4.584;2023-12-07T09:09:56;17.60;;;12.30;;
37781;SDS011;23621;50.878;4.584;2023-12-07T09:12:43;16.67;;;12.23;;
37781;SDS011;23621;50.878;4.584;2023-12-07T09:15:33;15.38;;;11.73;;
37781;SDS011;23621;50.878;4.584;2023-12-07T09:18:24;15.60;;;12.25;;
37781;SDS011;23621;50.878;4.584;2023-12-07T09:21:11;17.60;;;12.48;;
37781;SDS011;23621;50.878;4.584;2023-12-07T09:23:59;13.35;;;11.63;;
37781;SDS011;23621;50.878;4.584;2023-12-07T09:26:46;14.77;;;12.25;;
37781;SDS011;23621;50.878;4.584;2023-12-07T09:29:35;16.52;;;11.10;;
37781;SDS011;23621;50.878;4.584;2023-12-07T09:32:23;16.98;;;12.05;;
37781;SDS011;23621;50.878;4.584;2023-12-07T09:35:21;14.23;;;11.25;;
37781;SDS011;23621;50.878;4.584;2023-12-07T09:38:09;14.88;;;11.77;;
37781;SDS011;23621;50.878;4.584;2023-12-07T09:40:56;16.27;;;10.82;;
37781;SDS011;23621;50.878;4.584;2023-12-07T09:43:44;16.92;;;11.00;;
37781;SDS011;23621;50.878;4.584;2023-12-07T09:46:31;14.50;;;12.23;;
37781;SDS011;23621;50.878;4.584;2023-12-07T09:49:19;21.65;;;15.00;;
37781;SDS011;23621;50.878;4.584;2023-12-07T09:52:07;19.55;;;12.88;;
37781;SDS011;23621;50.878;4.584;2023-12-07T09:54:55;18.98;;;14.68;;
37781;SDS011;23621;50.878;4.584;2023-12-07T09:57:47;16.20;;;11.43;;
37781;SDS011;23621;50.878;4.584;2023-12-07T10:00:35;13.15;;;11.75;;
37781;SDS011;23621;50.878;4.584;2023-12-07T10:03:24;13.70;;;11.27;;
37781;SDS011;23621;50.878;4.584;2023-12-07T10:06:12;17.15;;;11.80;;
37781;SDS011;23621;50.878;4.584;2023-12-07T10:09:02;16.58;;;11.45;;
37781;SDS011;23621;50.878;4.584;2023-12-07T10:12:01;13.50;;;10.73;;
37781;SDS011;23621;50.878;4.584;2023-12-07T10:14:49;16.05;;;10.98;;
37781;SDS011;23621;50.878;4.584;2023-12-07T10:17:43;16.10;;;11.75;;
37781;SDS011;23621;50.878;4.584;2023-12-07T10:20:37;13.77;;;10.70;;
37781;SDS011;23621;50.878;4.584;2023-12-07T10:23:33;14.85;;;10.75;;
37781;SDS011;23621;50.878;4.584;2023-12-07T10:26:20;14.43;;;10.50;;
37781;SDS011;23621;50.878;4.584;2023-12-07T10:29:08;14.95;;;10.70;;
37781;SDS011;23621;50.878;4.584;2023-12-07T10:32:12;11.82;;;10.63;;
37781;SDS011;23621;50.878;4.584;2023-12-07T10:34:59;12.00;;;10.30;;
37781;SDS011;23621;50.878;4.584;2023-12-07T10:37:48;17.50;;;11.10;;
37781;SDS011;23621;50.878;4.584;2023-12-07T10:40:35;13.63;;;10.18;;
37781;SDS011;23621;50.878;4.584;2023-12-07T10:43:23;16.67;;;10.82;;
37781;SDS011;23621;50.878;4.584;2023-12-07T10:46:11;16.15;;;10.25;;
37781;SDS011;23621;50.878;4.584;2023-12-07T10:49:05;14.30;;;10.88;;
37781;SDS011;23621;50.878;4.584;2023-12-07T10:52:07;11.75;;;10.35;;
37781;SDS011;23621;50.878;4.584;2023-12-07T10:55:02;11.60;;;10.40;;
37781;SDS011;23621;50.878;4.584;2023-12-07T10:57:52;14.82;;;10.77;;
37781;SDS011;23621;50.878;4.584;2023-12-07T11:00:42;13.90;;;10.90;;
37781;SDS011;23621;50.878;4.584;2023-12-07T11:03:35;12.57;;;9.60;;
37781;SDS011;23621;50.878;4.584;2023-12-07T11:06:23;12.70;;;9.85;;
37781;SDS011;23621;50.878;4.584;2023-12-07T11:09:13;11.98;;;10.75;;
37781;SDS011;23621;50.878;4.584;2023-12-07T11:12:19;13.45;;;9.55;;
37781;SDS011;23621;50.878;4.584;2023-12-07T11:15:20;13.88;;;10.45;;
37781;SDS011;23621;50.878;4.584;2023-12-07T11:18:08;13.05;;;9.52;;
37781;SDS011;23621;50.878;4.584;2023-12-07T11:20:55;12.57;;;9.57;;
37781;SDS011;23621;50.878;4.584;2023-12-07T11:23:43;13.60;;;9.95;;
37781;SDS011;23621;50.878;4.584;2023-12-07T11:26:30;11.45;;;9.50;;
37781;SDS011;23621;50.878;4.584;2023-12-07T11:29:21;12.88;;;9.30;;
37781;SDS011;23621;50.878;4.584;2023-12-07T11:32:15;13.70;;;9.85;;
37781;SDS011;23621;50.878;4.584;2023-12-07T11:35:14;14.02;;;10.10;;
37781;SDS011;23621;50.878;4.584;2023-12-07T11:40:58;13.15;;;10.02;;
37781;SDS011;23621;50.878;4.584;2023-12-07T11:43:46;11.15;;;9.77;;
37781;SDS011;23621;50.878;4.584;2023-12-07T11:46:33;11.38;;;10.10;;
37781;SDS011;23621;50.878;4.584;2023-12-07T11:49:21;12.82;;;10.00;;
37781;SDS011;23621;50.878;4.584;2023-12-07T11:52:21;15.60;;;10.15;;
37781;SDS011;23621;50.878;4.584;2023-12-07T11:55:08;12.80;;;9.45;;
37781;SDS011;23621;50.878;4.584;2023-12-07T11:57:58;10.18;;;9.10;;
37781;SDS011;23621;50.878;4.584;2023-12-07T12:00:46;12.63;;;9.98;;
37781;SDS011;23621;50.878;4.584;2023-12-07T12:03:34;11.02;;;9.40;;
37781;SDS011;23621;50.878;4.584;2023-12-07T12:06:23;14.15;;;8.90;;
37781;SDS011;23621;50.878;4.584;2023-12-07T12:09:14;13.07;;;9.40;;
37781;SDS011;23621;50.878;4.584;2023-12-07T12:12:15;13.45;;;9.23;;
37781;SDS011;23621;50.878;4.584;2023-12-07T12:15:03;15.32;;;9.50;;
37781;SDS011;23621;50.878;4.584;2023-12-07T12:17:51;11.98;;;8.70;;
37781;SDS011;23621;50.878;4.584;2023-12-07T12:20:38;9.40;;;8.10;;
37781;SDS011;23621;50.878;4.584;2023-12-07T12:23:26;14.80;;;8.80;;
37781;SDS011;23621;50.878;4.584;2023-12-07T12:26:15;10.88;;;8.63;;
37781;SDS011;23621;50.878;4.584;2023-12-07T12:29:04;9.68;;;8.07;;
37781;SDS011;23621;50.878;4.584;2023-12-07T12:32:09;9.68;;;8.73;;
37781;SDS011;23621;50.878;4.584;2023-12-07T12:34:56;11.05;;;8.57;;
37781;SDS011;23621;50.878;4.584;2023-12-07T12:37:45;12.10;;;8.50;;
37781;SDS011;23621;50.878;4.584;2023-12-07T12:40:35;9.02;;;7.68;;
37781;SDS011;23621;50.878;4.584;2023-12-07T12:43:22;10.90;;;8.18;;
37781;SDS011;23621;50.878;4.584;2023-12-07T12:46:09;9.85;;;7.95;;
37781;SDS011;23621;50.878;4.584;2023-12-07T12:48:59;9.63;;;8.50;;
37781;SDS011;23621;50.878;4.584;2023-12-07T12:51:47;9.70;;;7.93;;
37781;SDS011;23621;50.878;4.584;2023-12-07T12:54:35;9.45;;;7.70;;
37781;SDS011;23621;50.878;4.584;2023-12-07T12:57:23;11.82;;;7.97;;
37781;SDS011;23621;50.878;4.584;2023-12-07T13:00:12;9.77;;;7.97;;
37781;SDS011;23621;50.878;4.584;2023-12-07T13:03:00;11.13;;;7.95;;
37781;SDS011;23621;50.878;4.584;2023-12-07T13:05:48;9.95;;;7.80;;
37781;SDS011;23621;50.878;4.584;2023-12-07T13:08:36;8.90;;;7.88;;
37781;SDS011;23621;50.878;4.584;2023-12-07T13:11:23;10.63;;;7.82;;
37781;SDS011;23621;50.878;4.584;2023-12-07T13:14:10;10.40;;;7.65;;
37781;SDS011;23621;50.878;4.584;2023-12-07T13:16:57;10.30;;;7.47;;
37781;SDS011;23621;50.878;4.584;2023-12-07T13:19:45;9.10;;;8.07;;
37781;SDS011;23621;50.878;4.584;2023-12-07T13:22:32;9.70;;;8.00;;
37781;SDS011;23621;50.878;4.584;2023-12-07T13:25:19;8.80;;;7.90;;
37781;SDS011;23621;50.878;4.584;2023-12-07T13:28:07;8.88;;;8.05;;
37781;SDS011;23621;50.878;4.584;2023-12-07T13:30:55;8.68;;;7.13;;
37781;SDS011;23621;50.878;4.584;2023-12-07T13:33:43;9.38;;;7.40;;
37781;SDS011;23621;50.878;4.584;2023-12-07T13:36:41;11.90;;;7.30;;
37781;SDS011;23621;50.878;4.584;2023-12-07T13:39:29;8.13;;;7.25;;
37781;SDS011;23621;50.878;4.584;2023-12-07T13:42:18;9.30;;;7.25;;
37781;SDS011;23621;50.878;4.584;2023-12-07T13:45:05;9.65;;;7.22;;
37781;SDS011;23621;50.878;4.584;2023-12-07T13:47:55;9.00;;;7.50;;
37781;SDS011;23621;50.878;4.584;2023-12-07T13:50:42;9.65;;;7.32;;
37781;SDS011;23621;50.878;4.584;2023-12-07T13:53:29;10.40;;;7.07;;
37781;SDS011;23621;50.878;4.584;2023-12-07T13:56:17;8.05;;;6.65;;
37781;SDS011;23621;50.878;4.584;2023-12-07T13:59:04;8.18;;;6.78;;
37781;SDS011;23621;50.878;4.584;2023-12-07T14:01:54;10.20;;;8.13;;
37781;SDS011;23621;50.878;4.584;2023-12-07T14:04:42;8.88;;;8.07;;
37781;SDS011;23621;50.878;4.584;2023-12-07T14:07:31;8.45;;;7.55;;
37781;SDS011;23621;50.878;4.584;2023-12-07T14:10:19;9.20;;;8.30;;
37781;SDS011;23621;50.878;4.584;2023-12-07T14:13:07;9.93;;;7.32;;
37781;SDS011;23621;50.878;4.584;2023-12-07T14:15:55;10.82;;;8.32;;
37781;SDS011;23621;50.878;4.584;2023-12-07T14:18:55;10.38;;;8.35;;
37781;SDS011;23621;50.878;4.584;2023-12-07T14:22:00;17.25;;;8.63;;
37781;SDS011;23621;50.878;4.584;2023-12-07T14:24:48;9.93;;;8.60;;
37781;SDS011;23621;50.878;4.584;2023-12-07T14:27:35;12.20;;;8.40;;
37781;SDS011;23621;50.878;4.584;2023-12-07T14:30:22;10.48;;;9.07;;
37781;SDS011;23621;50.878;4.584;2023-12-07T14:33:10;10.30;;;8.63;;
37781;SDS011;23621;50.878;4.584;2023-12-07T14:35:58;11.00;;;8.48;;
37781;SDS011;23621;50.878;4.584;2023-12-07T14:38:46;10.95;;;8.57;;
37781;SDS011;23621;50.878;4.584;2023-12-07T14:41:34;9.30;;;8.30;;
37781;SDS011;23621;50.878;4.584;2023-12-07T14:44:21;9.82;;;8.60;;
37781;SDS011;23621;50.878;4.584;2023-12-07T14:47:15;9.85;;;8.40;;
37781;SDS011;23621;50.878;4.584;2023-12-07T14:50:02;9.63;;;8.43;;
37781;SDS011;23621;50.878;4.584;2023-12-07T14:52:51;11.65;;;8.32;;
37781;SDS011;23621;50.878;4.584;2023-12-07T14:55:38;11.50;;;8.88;;
37781;SDS011;23621;50.878;4.584;2023-12-07T14:58:26;9.25;;;8.25;;
37781;SDS011;23621;50.878;4.584;2023-12-07T15:01:14;9.27;;;8.32;;
37781;SDS011;23621;50.878;4.584;2023-12-07T15:04:01;11.00;;;7.75;;
37781;SDS011;23621;50.878;4.584;2023-12-07T15:06:48;9.60;;;8.32;;
37781;SDS011;23621;50.878;4.584;2023-12-07T15:09:36;9.25;;;7.30;;
37781;SDS011;23621;50.878;4.584;2023-12-07T15:12:24;9.52;;;8.48;;
37781;SDS011;23621;50.878;4.584;2023-12-07T15:15:15;9.18;;;8.30;;
37781;SDS011;23621;50.878;4.584;2023-12-07T15:18:02;12.63;;;8.55;;
37781;SDS011;23621;50.878;4.584;2023-12-07T15:20:50;10.35;;;8.32;;
37781;SDS011;23621;50.878;4.584;2023-12-07T15:23:37;10.10;;;7.70;;
37781;SDS011;23621;50.878;4.584;2023-12-07T15:26:25;9.65;;;8.40;;
37781;SDS011;23621;50.878;4.584;2023-12-07T15:29:13;8.85;;;7.45;;
37781;SDS011;23621;50.878;4.584;2023-12-07T15:32:01;10.07;;;7.95;;
37781;SDS011;23621;50.878;4.584;2023-12-07T15:34:49;9.82;;;8.35;;
37781;SDS011;23621;50.878;4.584;2023-12-07T15:37:37;9.25;;;7.85;;
37781;SDS011;23621;50.878;4.584;2023-12-07T15:40:24;8.65;;;7.68;;
37781;SDS011;23621;50.878;4.584;2023-12-07T15:43:11;10.43;;;8.07;;
37781;SDS011;23621;50.878;4.584;2023-12-07T15:45:58;11.40;;;8.25;;
37781;SDS011;23621;50.878;4.584;2023-12-07T15:48:46;11.25;;;8.00;;
37781;SDS011;23621;50.878;4.584;2023-12-07T15:51:33;10.68;;;8.45;;
37781;SDS011;23621;50.878;4.584;2023-12-07T15:54:20;10.07;;;7.93;;
37781;SDS011;23621;50.878;4.584;2023-12-07T15:57:23;10.70;;;8.13;;
37781;SDS011;23621;50.878;4.584;2023-12-07T16:00:10;11.02;;;7.70;;
37781;SDS011;23621;50.878;4.584;2023-12-07T16:02:59;11.45;;;8.80;;
37781;SDS011;23621;50.878;4.584;2023-12-07T16:05:46;9.05;;;8.13;;
37781;SDS011;23621;50.878;4.584;2023-12-07T16:08:33;10.98;;;7.50;;
37781;SDS011;23621;50.878;4.584;2023-12-07T16:11:21;15.35;;;9.00;;
37781;SDS011;23621;50.878;4.584;2023-12-07T16:14:08;10.60;;;8.82;;
37781;SDS011;23621;50.878;4.584;2023-12-07T16:17:03;10.82;;;8.02;;
37781;SDS011;23621;50.878;4.584;2023-12-07T16:19:51;10.20;;;7.78;;
37781;SDS011;23621;50.878;4.584;2023-12-07T16:22:38;12.07;;;8.80;;
37781;SDS011;23621;50.878;4.584;2023-12-07T16:25:26;10.07;;;8.07;;
37781;SDS011;23621;50.878;4.584;2023-12-07T16:28:13;9.68;;;7.85;;
37781;SDS011;23621;50.878;4.584;2023-12-07T16:31:00;10.02;;;8.02;;
37781;SDS011;23621;50.878;4.584;2023-12-07T16:33:47;11.38;;;9.18;;
37781;SDS011;23621;50.878;4.584;2023-12-07T16:36:44;10.57;;;8.65;;